sensor_id;sensor_type;location;lat;lon;timestamp;temperature;humidity
32614;DHT22;19031;51.400;6.770;2022-12-18T00:02:00;-6.40;99.90
32614;DHT22;19031;51.400;6.770;2022-12-18T00:04:26;-6.40;99.90
32614;DHT22;19031;51.400;6.770;2022-12-18T00:06:52;-6.30;99.90
32614;DHT22;19031;51.400;6.770;2022-12-18T00:09:18;-6.40;99.90
32614;DHT22;19031;51.400;6.770;2022-12-18T00:11:43;-6.40;99.90
32614;DHT22;19031;51.400;6.770;2022-12-18T00:14:09;-6.40;99.90
32614;DHT22;19031;51.400;6.770;2022-12-18T00:16:36;-6.40;99.90
32614;DHT22;19031;51.400;6.770;2022-12-18T00:19:02;-6.40;99.90
32614;DHT22;19031;51.400;6.770;2022-12-18T00:21:28;-6.40;99.90
32614;DHT22;19031;51.400;6.770;2022-12-18T00:23:54;-6.30;99.90
32614;DHT22;19031;51.400;6.770;2022-12-18T00:26:21;-6.30;99.90
32614;DHT22;19031;51.400;6.770;2022-12-18T00:28:50;-6.20;99.90
32614;DHT22;19031;51.400;6.770;2022-12-18T00:31:18;-6.10;99.90
32614;DHT22;19031;51.400;6.770;2022-12-18T00:33:44;-6.10;99.90
32614;DHT22;19031;51.400;6.770;2022-12-18T00:36:10;-6.10;99.90
32614;DHT22;19031;51.400;6.770;2022-12-18T00:38:37;-6.00;99.90
32614;DHT22;19031;51.400;6.770;2022-12-18T00:41:03;-5.90;99.90
32614;DHT22;19031;51.400;6.770;2022-12-18T00:43:28;-5.70;99.90
32614;DHT22;19031;51.400;6.770;2022-12-18T00:45:54;-5.60;99.90
32614;DHT22;19031;51.400;6.770;2022-12-18T00:48:19;-5.50;99.90
32614;DHT22;19031;51.400;6.770;2022-12-18T00:50:45;-5.30;99.90
32614;DHT22;19031;51.400;6.770;2022-12-18T00:53:10;-5.30;99.90
32614;DHT22;19031;51.400;6.770;2022-12-18T00:55:39;-5.20;99.90
32614;DHT22;19031;51.400;6.770;2022-12-18T00:58:05;-5.00;99.90
32614;DHT22;19031;51.400;6.770;2022-12-18T01:00:31;-5.00;99.90
32614;DHT22;19031;51.400;6.770;2022-12-18T01:02:56;-5.00;99.90
32614;DHT22;19031;51.400;6.770;2022-12-18T01:05:25;-5.00;99.90
32614;DHT22;19031;51.400;6.770;2022-12-18T01:07:50;-5.00;99.90
32614;DHT22;19031;51.400;6.770;2022-12-18T01:10:16;-5.00;99.90
32614;DHT22;19031;51.400;6.770;2022-12-18T01:12:42;-5.00;99.90
32614;DHT22;19031;51.400;6.770;2022-12-18T01:15:07;-4.90;99.90
32614;DHT22;19031;51.400;6.770;2022-12-18T01:17:33;-5.10;99.90
32614;DHT22;19031;51.400;6.770;2022-12-18T01:19:59;-5.10;99.90
32614;DHT22;19031;51.400;6.770;2022-12-18T01:22:24;-5.00;99.90
32614;DHT22;19031;51.400;6.770;2022-12-18T01:24:50;-4.90;99.90
32614;DHT22;19031;51.400;6.770;2022-12-18T01:27:15;-4.90;99.90
32614;DHT22;19031;51.400;6.770;2022-12-18T01:29:41;-4.90;99.90
32614;DHT22;19031;51.400;6.770;2022-12-18T01:32:06;-4.90;99.90
32614;DHT22;19031;51.400;6.770;2022-12-18T01:34:31;-4.90;99.90
32614;DHT22;19031;51.400;6.770;2022-12-18T01:36:58;-5.00;99.90
32614;DHT22;19031;51.400;6.770;2022-12-18T01:39:24;-5.00;99.90
32614;DHT22;19031;51.400;6.770;2022-12-18T01:41:49;-5.00;99.90
32614;DHT22;19031;51.400;6.770;2022-12-18T01:47:13;-5.00;99.90
32614;DHT22;19031;51.400;6.770;2022-12-18T01:49:39;-5.00;99.90
32614;DHT22;19031;51.400;6.770;2022-12-18T01:52:04;-5.10;99.90
32614;DHT22;19031;51.400;6.770;2022-12-18T01:54:30;-5.10;99.90
32614;DHT22;19031;51.400;6.770;2022-12-18T01:56:55;-5.10;99.90
32614;DHT22;19031;51.400;6.770;2022-12-18T01:59:21;-5.20;99.90
32614;DHT22;19031;51.400;6.770;2022-12-18T02:01:47;-5.10;99.90
32614;DHT22;19031;51.400;6.770;2022-12-18T02:06:44;-5.20;99.90
32614;DHT22;19031;51.400;6.770;2022-12-18T02:09:14;-5.20;99.90
32614;DHT22;19031;51.400;6.770;2022-12-18T02:16:44;-5.30;99.90
32614;DHT22;19031;51.400;6.770;2022-12-18T02:21:48;-5.30;99.90
32614;DHT22;19031;51.400;6.770;2022-12-18T02:27:01;-5.40;99.90
32614;DHT22;19031;51.400;6.770;2022-12-18T02:29:33;-5.40;99.90
32614;DHT22;19031;51.400;6.770;2022-12-18T02:31:59;-5.50;99.90
32614;DHT22;19031;51.400;6.770;2022-12-18T02:34:30;-5.50;99.90
32614;DHT22;19031;51.400;6.770;2022-12-18T02:36:56;-5.50;99.90
32614;DHT22;19031;51.400;6.770;2022-12-18T02:39:23;-5.40;99.90
32614;DHT22;19031;51.400;6.770;2022-12-18T02:41:51;-5.40;99.90
32614;DHT22;19031;51.400;6.770;2022-12-18T02:44:17;-5.40;99.90
32614;DHT22;19031;51.400;6.770;2022-12-18T02:46:43;-5.30;99.90
32614;DHT22;19031;51.400;6.770;2022-12-18T02:52:06;-5.10;99.90
32614;DHT22;19031;51.400;6.770;2022-12-18T02:54:55;-5.10;99.90
32614;DHT22;19031;51.400;6.770;2022-12-18T02:57:28;-5.00;99.90
32614;DHT22;19031;51.400;6.770;2022-12-18T02:59:57;-4.90;99.90
32614;DHT22;19031;51.400;6.770;2022-12-18T03:02:25;-4.70;99.90
32614;DHT22;19031;51.400;6.770;2022-12-18T03:04:57;-4.70;99.90
32614;DHT22;19031;51.400;6.770;2022-12-18T03:07:33;-4.70;99.90
32614;DHT22;19031;51.400;6.770;2022-12-18T03:10:00;-4.60;99.90
32614;DHT22;19031;51.400;6.770;2022-12-18T03:14:59;-4.50;99.90
32614;DHT22;19031;51.400;6.770;2022-12-18T03:17:27;-4.60;99.90
32614;DHT22;19031;51.400;6.770;2022-12-18T03:19:56;-4.60;99.90
32614;DHT22;19031;51.400;6.770;2022-12-18T03:22:23;-4.50;99.90
32614;DHT22;19031;51.400;6.770;2022-12-18T03:24:49;-4.60;99.90
32614;DHT22;19031;51.400;6.770;2022-12-18T03:27:15;-4.40;99.90
32614;DHT22;19031;51.400;6.770;2022-12-18T03:29:43;-4.50;99.90
32614;DHT22;19031;51.400;6.770;2022-12-18T03:32:15;-4.50;99.90
32614;DHT22;19031;51.400;6.770;2022-12-18T03:34:41;-4.40;99.90
32614;DHT22;19031;51.400;6.770;2022-12-18T03:37:07;-4.40;99.90
32614;DHT22;19031;51.400;6.770;2022-12-18T03:39:34;-4.40;99.90
32614;DHT22;19031;51.400;6.770;2022-12-18T03:52:08;-4.10;99.90
32614;DHT22;19031;51.400;6.770;2022-12-18T03:54:34;-4.10;99.90
32614;DHT22;19031;51.400;6.770;2022-12-18T03:57:12;-4.20;99.90
32614;DHT22;19031;51.400;6.770;2022-12-18T03:59:42;-4.10;99.90
32614;DHT22;19031;51.400;6.770;2022-12-18T04:02:09;-4.10;99.90
32614;DHT22;19031;51.400;6.770;2022-12-18T04:04:35;-4.10;99.90
32614;DHT22;19031;51.400;6.770;2022-12-18T04:07:03;-4.00;99.90
32614;DHT22;19031;51.400;6.770;2022-12-18T04:09:30;-3.90;99.90
32614;DHT22;19031;51.400;6.770;2022-12-18T04:11:57;-3.90;99.90
32614;DHT22;19031;51.400;6.770;2022-12-18T04:14:22;-3.80;99.90
32614;DHT22;19031;51.400;6.770;2022-12-18T04:16:48;-3.90;99.90
32614;DHT22;19031;51.400;6.770;2022-12-18T04:19:13;-3.90;99.90
32614;DHT22;19031;51.400;6.770;2022-12-18T04:21:39;-3.90;99.90
32614;DHT22;19031;51.400;6.770;2022-12-18T04:24:05;-3.90;99.90
32614;DHT22;19031;51.400;6.770;2022-12-18T04:26:31;-4.00;99.90
32614;DHT22;19031;51.400;6.770;2022-12-18T04:28:56;-4.00;99.90
32614;DHT22;19031;51.400;6.770;2022-12-18T04:31:22;-4.20;99.90
32614;DHT22;19031;51.400;6.770;2022-12-18T04:33:48;-4.10;99.90
32614;DHT22;19031;51.400;6.770;2022-12-18T04:36:13;-4.30;99.90
32614;DHT22;19031;51.400;6.770;2022-12-18T04:38:40;-4.30;99.90
32614;DHT22;19031;51.400;6.770;2022-12-18T04:41:05;-4.40;99.90
32614;DHT22;19031;51.400;6.770;2022-12-18T04:43:31;-4.50;99.90
32614;DHT22;19031;51.400;6.770;2022-12-18T04:46:02;-4.50;99.90
32614;DHT22;19031;51.400;6.770;2022-12-18T04:48:28;-4.50;99.90
32614;DHT22;19031;51.400;6.770;2022-12-18T04:50:53;-4.60;99.90
32614;DHT22;19031;51.400;6.770;2022-12-18T04:53:19;-4.80;99.90
32614;DHT22;19031;51.400;6.770;2022-12-18T04:55:44;-4.80;99.90
32614;DHT22;19031;51.400;6.770;2022-12-18T04:58:10;-4.90;99.90
32614;DHT22;19031;51.400;6.770;2022-12-18T05:00:35;-5.00;99.90
32614;DHT22;19031;51.400;6.770;2022-12-18T05:03:01;-5.10;99.90
32614;DHT22;19031;51.400;6.770;2022-12-18T05:05:27;-5.10;99.90
32614;DHT22;19031;51.400;6.770;2022-12-18T05:07:53;-5.10;99.90
32614;DHT22;19031;51.400;6.770;2022-12-18T05:10:18;-5.20;99.90
32614;DHT22;19031;51.400;6.770;2022-12-18T05:12:43;-5.20;99.90
32614;DHT22;19031;51.400;6.770;2022-12-18T05:15:30;-5.30;99.90
32614;DHT22;19031;51.400;6.770;2022-12-18T05:17:56;-5.40;99.90
32614;DHT22;19031;51.400;6.770;2022-12-18T05:20:22;-5.50;99.90
32614;DHT22;19031;51.400;6.770;2022-12-18T05:22:48;-5.50;99.90
32614;DHT22;19031;51.400;6.770;2022-12-18T05:25:13;-5.50;99.90
32614;DHT22;19031;51.400;6.770;2022-12-18T05:27:39;-5.40;99.90
32614;DHT22;19031;51.400;6.770;2022-12-18T05:30:04;-5.50;99.90
32614;DHT22;19031;51.400;6.770;2022-12-18T05:32:30;-5.60;99.90
32614;DHT22;19031;51.400;6.770;2022-12-18T05:34:55;-5.60;99.90
32614;DHT22;19031;51.400;6.770;2022-12-18T05:37:22;-5.70;99.90
32614;DHT22;19031;51.400;6.770;2022-12-18T05:39:48;-5.80;99.90
32614;DHT22;19031;51.400;6.770;2022-12-18T05:42:13;-5.60;99.90
32614;DHT22;19031;51.400;6.770;2022-12-18T05:44:39;-5.70;99.90
32614;DHT22;19031;51.400;6.770;2022-12-18T05:47:04;-5.70;99.90
32614;DHT22;19031;51.400;6.770;2022-12-18T05:49:29;-5.70;99.90
32614;DHT22;19031;51.400;6.770;2022-12-18T05:51:55;-5.80;99.90
32614;DHT22;19031;51.400;6.770;2022-12-18T05:54:21;-5.90;99.90
32614;DHT22;19031;51.400;6.770;2022-12-18T05:56:47;-5.90;99.90
32614;DHT22;19031;51.400;6.770;2022-12-18T05:59:12;-5.80;99.90
32614;DHT22;19031;51.400;6.770;2022-12-18T06:01:38;-5.90;99.90
32614;DHT22;19031;51.400;6.770;2022-12-18T06:04:03;-6.00;99.90
32614;DHT22;19031;51.400;6.770;2022-12-18T06:06:29;-6.00;99.90
32614;DHT22;19031;51.400;6.770;2022-12-18T06:08:54;-5.90;99.90
32614;DHT22;19031;51.400;6.770;2022-12-18T06:11:21;-5.90;99.90
32614;DHT22;19031;51.400;6.770;2022-12-18T06:13:50;-6.00;99.90
32614;DHT22;19031;51.400;6.770;2022-12-18T06:16:16;-6.00;99.90
32614;DHT22;19031;51.400;6.770;2022-12-18T06:18:42;-6.00;99.90
32614;DHT22;19031;51.400;6.770;2022-12-18T06:21:07;-6.00;99.90
32614;DHT22;19031;51.400;6.770;2022-12-18T06:23:33;-6.00;99.90
32614;DHT22;19031;51.400;6.770;2022-12-18T06:25:58;-6.00;99.90
32614;DHT22;19031;51.400;6.770;2022-12-18T06:28:24;-6.10;99.90
32614;DHT22;19031;51.400;6.770;2022-12-18T06:30:49;-6.10;99.90
32614;DHT22;19031;51.400;6.770;2022-12-18T06:33:15;-6.10;99.90
32614;DHT22;19031;51.400;6.770;2022-12-18T06:35:40;-6.10;99.90
32614;DHT22;19031;51.400;6.770;2022-12-18T06:38:06;-6.10;99.90
32614;DHT22;19031;51.400;6.770;2022-12-18T06:40:31;-6.10;99.90
32614;DHT22;19031;51.400;6.770;2022-12-18T06:42:57;-6.20;99.90
32614;DHT22;19031;51.400;6.770;2022-12-18T06:45:22;-6.10;99.90
32614;DHT22;19031;51.400;6.770;2022-12-18T06:47:48;-6.10;99.90
32614;DHT22;19031;51.400;6.770;2022-12-18T06:50:13;-6.20;99.90
32614;DHT22;19031;51.400;6.770;2022-12-18T06:52:39;-6.30;99.90
32614;DHT22;19031;51.400;6.770;2022-12-18T06:55:08;-6.40;99.90
32614;DHT22;19031;51.400;6.770;2022-12-18T06:57:34;-6.40;99.90
32614;DHT22;19031;51.400;6.770;2022-12-18T06:59:59;-6.50;99.90
32614;DHT22;19031;51.400;6.770;2022-12-18T07:02:25;-6.50;99.90
32614;DHT22;19031;51.400;6.770;2022-12-18T07:04:50;-6.50;99.90
32614;DHT22;19031;51.400;6.770;2022-12-18T07:07:16;-6.60;99.90
32614;DHT22;19031;51.400;6.770;2022-12-18T07:09:41;-6.60;99.90
32614;DHT22;19031;51.400;6.770;2022-12-18T07:12:06;-6.60;99.90
32614;DHT22;19031;51.400;6.770;2022-12-18T07:14:33;-6.60;99.90
32614;DHT22;19031;51.400;6.770;2022-12-18T07:16:58;-6.70;99.90
32614;DHT22;19031;51.400;6.770;2022-12-18T07:19:24;-6.60;99.90
32614;DHT22;19031;51.400;6.770;2022-12-18T07:21:50;-6.60;99.90
32614;DHT22;19031;51.400;6.770;2022-12-18T07:24:15;-6.60;99.90
32614;DHT22;19031;51.400;6.770;2022-12-18T07:26:41;-6.60;99.90
32614;DHT22;19031;51.400;6.770;2022-12-18T07:29:06;-6.60;99.90
32614;DHT22;19031;51.400;6.770;2022-12-18T07:31:32;-6.60;99.90
32614;DHT22;19031;51.400;6.770;2022-12-18T07:33:57;-6.60;99.90
32614;DHT22;19031;51.400;6.770;2022-12-18T07:36:23;-6.60;99.90
32614;DHT22;19031;51.400;6.770;2022-12-18T07:38:48;-6.60;99.90
32614;DHT22;19031;51.400;6.770;2022-12-18T07:41:14;-6.70;99.90
32614;DHT22;19031;51.400;6.770;2022-12-18T07:43:40;-6.60;99.90
32614;DHT22;19031;51.400;6.770;2022-12-18T07:46:06;-6.60;99.90
32614;DHT22;19031;51.400;6.770;2022-12-18T07:48:32;-6.60;99.90
32614;DHT22;19031;51.400;6.770;2022-12-18T07:50:58;-6.60;99.90
32614;DHT22;19031;51.400;6.770;2022-12-18T07:53:23;-6.50;99.90
32614;DHT22;19031;51.400;6.770;2022-12-18T07:55:49;-6.40;99.90
32614;DHT22;19031;51.400;6.770;2022-12-18T07:58:14;-6.30;99.90
32614;DHT22;19031;51.400;6.770;2022-12-18T08:00:40;-6.00;99.90
32614;DHT22;19031;51.400;6.770;2022-12-18T08:03:05;-5.90;99.90
32614;DHT22;19031;51.400;6.770;2022-12-18T08:05:31;-5.60;99.90
32614;DHT22;19031;51.400;6.770;2022-12-18T08:07:56;-5.30;99.90
32614;DHT22;19031;51.400;6.770;2022-12-18T08:10:23;-5.10;99.90
32614;DHT22;19031;51.400;6.770;2022-12-18T08:12:49;-5.00;99.90
32614;DHT22;19031;51.400;6.770;2022-12-18T08:15:14;-4.80;99.90
32614;DHT22;19031;51.400;6.770;2022-12-18T08:17:40;-4.60;99.90
32614;DHT22;19031;51.400;6.770;2022-12-18T08:20:06;-4.50;99.90
32614;DHT22;19031;51.400;6.770;2022-12-18T08:22:33;-4.30;99.90
32614;DHT22;19031;51.400;6.770;2022-12-18T08:24:58;-4.10;99.90
32614;DHT22;19031;51.400;6.770;2022-12-18T08:27:24;-4.00;99.90
32614;DHT22;19031;51.400;6.770;2022-12-18T08:29:49;-3.80;99.90
32614;DHT22;19031;51.400;6.770;2022-12-18T08:32:15;-3.80;99.90
32614;DHT22;19031;51.400;6.770;2022-12-18T08:34:40;-3.60;99.90
32614;DHT22;19031;51.400;6.770;2022-12-18T08:37:06;-3.50;99.90
32614;DHT22;19031;51.400;6.770;2022-12-18T08:39:31;-3.30;99.90
32614;DHT22;19031;51.400;6.770;2022-12-18T08:41:56;-3.30;99.90
32614;DHT22;19031;51.400;6.770;2022-12-18T08:44:40;-3.20;99.90
32614;DHT22;19031;51.400;6.770;2022-12-18T08:47:06;-3.10;99.90
32614;DHT22;19031;51.400;6.770;2022-12-18T08:49:32;-3.00;99.90
32614;DHT22;19031;51.400;6.770;2022-12-18T08:51:58;-2.80;99.90
32614;DHT22;19031;51.400;6.770;2022-12-18T08:54:23;-2.80;99.90
32614;DHT22;19031;51.400;6.770;2022-12-18T08:56:49;-2.70;99.90
32614;DHT22;19031;51.400;6.770;2022-12-18T08:59:18;-2.60;99.20
32614;DHT22;19031;51.400;6.770;2022-12-18T09:01:43;-2.50;98.70
32614;DHT22;19031;51.400;6.770;2022-12-18T09:04:09;-2.50;97.00
32614;DHT22;19031;51.400;6.770;2022-12-18T09:06:35;-2.40;96.40
32614;DHT22;19031;51.400;6.770;2022-12-18T09:09:00;-2.20;96.10
32614;DHT22;19031;51.400;6.770;2022-12-18T09:11:27;-2.10;95.40
32614;DHT22;19031;51.400;6.770;2022-12-18T09:13:53;-2.10;94.50
32614;DHT22;19031;51.400;6.770;2022-12-18T09:16:19;-2.00;93.50
32614;DHT22;19031;51.400;6.770;2022-12-18T09:18:45;-1.90;92.30
32614;DHT22;19031;51.400;6.770;2022-12-18T09:21:14;-1.90;91.00
32614;DHT22;19031;51.400;6.770;2022-12-18T09:23:40;-1.80;91.10
32614;DHT22;19031;51.400;6.770;2022-12-18T09:26:06;-1.70;91.20
32614;DHT22;19031;51.400;6.770;2022-12-18T09:28:31;-1.70;91.10
32614;DHT22;19031;51.400;6.770;2022-12-18T09:30:57;-1.60;90.90
32614;DHT22;19031;51.400;6.770;2022-12-18T09:33:22;-1.60;90.20
32614;DHT22;19031;51.400;6.770;2022-12-18T09:35:48;-1.50;88.10
32614;DHT22;19031;51.400;6.770;2022-12-18T09:38:17;-1.40;83.20
32614;DHT22;19031;51.400;6.770;2022-12-18T09:40:50;-1.20;84.80
32614;DHT22;19031;51.400;6.770;2022-12-18T09:43:24;-1.00;85.10
32614;DHT22;19031;51.400;6.770;2022-12-18T09:45:54;-1.00;80.20
32614;DHT22;19031;51.400;6.770;2022-12-18T09:48:40;-0.90;77.70
32614;DHT22;19031;51.400;6.770;2022-12-18T09:51:15;-0.90;80.40
32614;DHT22;19031;51.400;6.770;2022-12-18T09:53:44;-0.80;72.90
32614;DHT22;19031;51.400;6.770;2022-12-18T09:56:16;-0.70;68.90
32614;DHT22;19031;51.400;6.770;2022-12-18T09:58:44;-0.60;69.40
32614;DHT22;19031;51.400;6.770;2022-12-18T10:01:20;-0.40;67.90
32614;DHT22;19031;51.400;6.770;2022-12-18T10:03:47;-0.40;64.40
32614;DHT22;19031;51.400;6.770;2022-12-18T10:06:13;-0.30;63.50
32614;DHT22;19031;51.400;6.770;2022-12-18T10:11:25;-0.10;54.80
32614;DHT22;19031;51.400;6.770;2022-12-18T10:13:54;0.00;51.40
32614;DHT22;19031;51.400;6.770;2022-12-18T10:16:24;0.00;50.50
32614;DHT22;19031;51.400;6.770;2022-12-18T10:18:59;0.10;50.60
32614;DHT22;19031;51.400;6.770;2022-12-18T10:22:01;0.20;51.20
32614;DHT22;19031;51.400;6.770;2022-12-18T10:26:46;0.50;41.90
32614;DHT22;19031;51.400;6.770;2022-12-18T10:29:12;0.70;35.70
32614;DHT22;19031;51.400;6.770;2022-12-18T10:31:39;0.80;36.50
32614;DHT22;19031;51.400;6.770;2022-12-18T10:34:07;0.90;33.50
32614;DHT22;19031;51.400;6.770;2022-12-18T10:36:34;0.90;31.40
32614;DHT22;19031;51.400;6.770;2022-12-18T10:41:40;1.00;26.90
32614;DHT22;19031;51.400;6.770;2022-12-18T10:44:10;1.10;28.50
32614;DHT22;19031;51.400;6.770;2022-12-18T10:46:39;1.10;25.00
32614;DHT22;19031;51.400;6.770;2022-12-18T10:49:04;1.10;19.50
32614;DHT22;19031;51.400;6.770;2022-12-18T10:51:31;1.30;23.70
32614;DHT22;19031;51.400;6.770;2022-12-18T10:54:00;1.30;19.30
32614;DHT22;19031;51.400;6.770;2022-12-18T10:56:26;1.30;12.70
32614;DHT22;19031;51.400;6.770;2022-12-18T10:59:02;1.30;11.30
32614;DHT22;19031;51.400;6.770;2022-12-18T11:04:17;1.50;6.50
32614;DHT22;19031;51.400;6.770;2022-12-18T11:06:54;1.30;7.20
32614;DHT22;19031;51.400;6.770;2022-12-18T11:09:30;1.50;4.10
32614;DHT22;19031;51.400;6.770;2022-12-18T11:11:58;1.50;1.00
32614;DHT22;19031;51.400;6.770;2022-12-18T11:14:34;1.50;3.50
32614;DHT22;19031;51.400;6.770;2022-12-18T11:19:57;1.70;8.10
32614;DHT22;19031;51.400;6.770;2022-12-18T11:22:24;1.80;1.00
32614;DHT22;19031;51.400;6.770;2022-12-18T11:24:52;1.90;1.00
32614;DHT22;19031;51.400;6.770;2022-12-18T11:27:18;1.80;1.00
32614;DHT22;19031;51.400;6.770;2022-12-18T11:29:44;1.90;1.20
32614;DHT22;19031;51.400;6.770;2022-12-18T11:34:48;2.00;2.00
32614;DHT22;19031;51.400;6.770;2022-12-18T11:37:15;2.00;2.00
32614;DHT22;19031;51.400;6.770;2022-12-18T11:39:55;2.00;1.00
32614;DHT22;19031;51.400;6.770;2022-12-18T11:42:24;2.00;1.00
32614;DHT22;19031;51.400;6.770;2022-12-18T11:45:00;2.00;1.00
32614;DHT22;19031;51.400;6.770;2022-12-18T11:47:29;1.90;1.00
32614;DHT22;19031;51.400;6.770;2022-12-18T11:49:59;2.00;1.00
32614;DHT22;19031;51.400;6.770;2022-12-18T11:52:34;2.00;1.00
32614;DHT22;19031;51.400;6.770;2022-12-18T11:55:01;1.90;1.00
32614;DHT22;19031;51.400;6.770;2022-12-18T11:57:39;1.90;1.00
32614;DHT22;19031;51.400;6.770;2022-12-18T12:12:45;1.90;1.00
32614;DHT22;19031;51.400;6.770;2022-12-18T12:18:08;1.90;1.00
32614;DHT22;19031;51.400;6.770;2022-12-18T12:20:45;2.00;1.00
32614;DHT22;19031;51.400;6.770;2022-12-18T12:26:16;1.90;1.00
32614;DHT22;19031;51.400;6.770;2022-12-18T12:28:47;1.90;1.00
32614;DHT22;19031;51.400;6.770;2022-12-18T12:36:29;2.00;1.00
32614;DHT22;19031;51.400;6.770;2022-12-18T12:38:58;1.90;1.00
32614;DHT22;19031;51.400;6.770;2022-12-18T12:41:27;1.90;1.00
32614;DHT22;19031;51.400;6.770;2022-12-18T12:44:15;1.80;1.00
32614;DHT22;19031;51.400;6.770;2022-12-18T12:46:41;1.80;1.00
32614;DHT22;19031;51.400;6.770;2022-12-18T12:49:20;1.80;1.00
32614;DHT22;19031;51.400;6.770;2022-12-18T12:54:32;1.70;1.00
32614;DHT22;19031;51.400;6.770;2022-12-18T12:59:47;1.80;1.00
32614;DHT22;19031;51.400;6.770;2022-12-18T13:02:20;1.70;1.00
32614;DHT22;19031;51.400;6.770;2022-12-18T13:07:29;1.60;1.00
32614;DHT22;19031;51.400;6.770;2022-12-18T13:10:14;1.60;1.00
32614;DHT22;19031;51.400;6.770;2022-12-18T13:12:54;1.60;1.00
32614;DHT22;19031;51.400;6.770;2022-12-18T13:15:24;1.70;1.00
32614;DHT22;19031;51.400;6.770;2022-12-18T13:23:04;1.50;1.00
32614;DHT22;19031;51.400;6.770;2022-12-18T13:25:44;1.60;3.40
32614;DHT22;19031;51.400;6.770;2022-12-18T13:28:13;1.60;7.30
32614;DHT22;19031;51.400;6.770;2022-12-18T13:30:55;1.60;1.00
32614;DHT22;19031;51.400;6.770;2022-12-18T13:36:09;1.50;4.10
32614;DHT22;19031;51.400;6.770;2022-12-18T13:38:35;1.60;3.80
32614;DHT22;19031;51.400;6.770;2022-12-18T13:41:02;1.50;1.00
32614;DHT22;19031;51.400;6.770;2022-12-18T13:43:32;1.50;1.00
32614;DHT22;19031;51.400;6.770;2022-12-18T13:48:29;1.50;1.00
32614;DHT22;19031;51.400;6.770;2022-12-18T13:50:57;1.40;1.00
32614;DHT22;19031;51.400;6.770;2022-12-18T13:53:38;1.50;1.00
32614;DHT22;19031;51.400;6.770;2022-12-18T13:56:05;1.50;1.00
32614;DHT22;19031;51.400;6.770;2022-12-18T13:58:30;1.50;1.00
32614;DHT22;19031;51.400;6.770;2022-12-18T14:00:56;1.40;6.50
32614;DHT22;19031;51.400;6.770;2022-12-18T14:03:25;1.40;1.00
32614;DHT22;19031;51.400;6.770;2022-12-18T14:06:07;1.50;2.80
32614;DHT22;19031;51.400;6.770;2022-12-18T14:08:36;1.40;1.00
32614;DHT22;19031;51.400;6.770;2022-12-18T14:11:02;1.50;1.00
32614;DHT22;19031;51.400;6.770;2022-12-18T14:13:30;1.40;1.00
32614;DHT22;19031;51.400;6.770;2022-12-18T14:15:56;1.30;1.00
32614;DHT22;19031;51.400;6.770;2022-12-18T14:20:57;1.40;1.00
32614;DHT22;19031;51.400;6.770;2022-12-18T14:25:54;1.30;1.50
32614;DHT22;19031;51.400;6.770;2022-12-18T14:28:19;1.30;2.20
32614;DHT22;19031;51.400;6.770;2022-12-18T14:30:47;1.20;1.00
32614;DHT22;19031;51.400;6.770;2022-12-18T14:33:14;1.10;1.00
32614;DHT22;19031;51.400;6.770;2022-12-18T14:35:41;1.20;1.00
32614;DHT22;19031;51.400;6.770;2022-12-18T14:40:39;1.30;3.50
32614;DHT22;19031;51.400;6.770;2022-12-18T14:43:04;1.20;1.00
32614;DHT22;19031;51.400;6.770;2022-12-18T14:45:34;1.20;1.00
32614;DHT22;19031;51.400;6.770;2022-12-18T14:47:59;1.20;1.50
32614;DHT22;19031;51.400;6.770;2022-12-18T14:50:25;1.30;1.00
32614;DHT22;19031;51.400;6.770;2022-12-18T14:52:51;1.20;3.40
32614;DHT22;19031;51.400;6.770;2022-12-18T14:55:17;1.10;1.00
32614;DHT22;19031;51.400;6.770;2022-12-18T14:57:43;1.20;1.00
32614;DHT22;19031;51.400;6.770;2022-12-18T15:00:17;1.10;1.00
32614;DHT22;19031;51.400;6.770;2022-12-18T15:02:44;1.10;5.00
32614;DHT22;19031;51.400;6.770;2022-12-18T15:07:40;1.00;3.00
32614;DHT22;19031;51.400;6.770;2022-12-18T15:10:16;1.10;1.50
32614;DHT22;19031;51.400;6.770;2022-12-18T15:12:43;1.00;1.00
32614;DHT22;19031;51.400;6.770;2022-12-18T15:17:57;0.90;3.00
32614;DHT22;19031;51.400;6.770;2022-12-18T15:20:22;1.00;3.80
32614;DHT22;19031;51.400;6.770;2022-12-18T15:22:48;1.00;5.60
32614;DHT22;19031;51.400;6.770;2022-12-18T15:27:48;1.00;8.80
32614;DHT22;19031;51.400;6.770;2022-12-18T15:32:42;1.00;8.80
32614;DHT22;19031;51.400;6.770;2022-12-18T15:37:33;0.90;6.90
32614;DHT22;19031;51.400;6.770;2022-12-18T15:39:59;1.00;4.60
32614;DHT22;19031;51.400;6.770;2022-12-18T15:42:24;0.90;5.30
32614;DHT22;19031;51.400;6.770;2022-12-18T15:45:11;0.90;18.50
32614;DHT22;19031;51.400;6.770;2022-12-18T15:47:37;0.90;6.30
32614;DHT22;19031;51.400;6.770;2022-12-18T15:50:02;0.90;10.10
32614;DHT22;19031;51.400;6.770;2022-12-18T15:52:28;0.80;14.80
32614;DHT22;19031;51.400;6.770;2022-12-18T15:54:53;0.80;9.30
32614;DHT22;19031;51.400;6.770;2022-12-18T15:57:37;0.80;10.30
32614;DHT22;19031;51.400;6.770;2022-12-18T16:00:03;0.80;9.60
32614;DHT22;19031;51.400;6.770;2022-12-18T16:02:28;0.80;15.10
32614;DHT22;19031;51.400;6.770;2022-12-18T16:04:54;0.90;10.80
32614;DHT22;19031;51.400;6.770;2022-12-18T16:07:20;0.90;18.00
32614;DHT22;19031;51.400;6.770;2022-12-18T16:09:48;0.90;14.00
32614;DHT22;19031;51.400;6.770;2022-12-18T16:12:19;0.90;19.30
32614;DHT22;19031;51.400;6.770;2022-12-18T16:14:46;0.80;22.20
32614;DHT22;19031;51.400;6.770;2022-12-18T16:17:11;0.80;16.60
32614;DHT22;19031;51.400;6.770;2022-12-18T16:19:37;0.80;22.70
32614;DHT22;19031;51.400;6.770;2022-12-18T16:22:03;0.80;22.50
32614;DHT22;19031;51.400;6.770;2022-12-18T16:24:30;0.90;22.00
32614;DHT22;19031;51.400;6.770;2022-12-18T16:26:56;0.90;20.60
32614;DHT22;19031;51.400;6.770;2022-12-18T16:29:22;0.80;22.80
32614;DHT22;19031;51.400;6.770;2022-12-18T16:31:52;0.80;26.30
32614;DHT22;19031;51.400;6.770;2022-12-18T16:36:54;0.80;25.70
32614;DHT22;19031;51.400;6.770;2022-12-18T16:39:20;0.70;26.10
32614;DHT22;19031;51.400;6.770;2022-12-18T16:41:46;0.70;31.40
32614;DHT22;19031;51.400;6.770;2022-12-18T16:44:12;0.70;29.10
32614;DHT22;19031;51.400;6.770;2022-12-18T16:46:38;0.60;33.30
32614;DHT22;19031;51.400;6.770;2022-12-18T16:49:04;0.70;31.70
32614;DHT22;19031;51.400;6.770;2022-12-18T16:51:32;0.60;31.20
32614;DHT22;19031;51.400;6.770;2022-12-18T16:53:58;0.60;34.90
32614;DHT22;19031;51.400;6.770;2022-12-18T16:56:23;0.70;39.90
32614;DHT22;19031;51.400;6.770;2022-12-18T16:58:53;0.70;39.10
32614;DHT22;19031;51.400;6.770;2022-12-18T17:01:19;0.60;41.40
32614;DHT22;19031;51.400;6.770;2022-12-18T17:03:50;0.70;46.00
32614;DHT22;19031;51.400;6.770;2022-12-18T17:06:17;0.60;44.70
32614;DHT22;19031;51.400;6.770;2022-12-18T17:08:43;0.70;48.00
32614;DHT22;19031;51.400;6.770;2022-12-18T17:11:08;0.60;48.70
32614;DHT22;19031;51.400;6.770;2022-12-18T17:13:34;0.50;49.20
32614;DHT22;19031;51.400;6.770;2022-12-18T17:16:04;0.50;51.10
32614;DHT22;19031;51.400;6.770;2022-12-18T17:18:30;0.50;56.60
32614;DHT22;19031;51.400;6.770;2022-12-18T17:20:59;0.50;55.00
32614;DHT22;19031;51.400;6.770;2022-12-18T17:23:26;0.50;55.40
32614;DHT22;19031;51.400;6.770;2022-12-18T17:25:58;0.50;58.10
32614;DHT22;19031;51.400;6.770;2022-12-18T17:28:24;0.50;59.60
32614;DHT22;19031;51.400;6.770;2022-12-18T17:30:51;0.40;60.60
32614;DHT22;19031;51.400;6.770;2022-12-18T17:33:16;0.40;62.50
32614;DHT22;19031;51.400;6.770;2022-12-18T17:35:42;0.40;64.10